sensor_id;sensor_type;location;lat;lon;timestamp;pressure;altitude;pressure_sealevel;temperature;humidity
9281;BME280;4679;47.966;7.958;2022-08-03T05:13:03;97149.81;;;18.25;67.37
9281;BME280;4679;47.966;7.958;2022-08-03T05:15:06;97151.47;;;18.21;67.78
9281;BME280;4679;47.966;7.958;2022-08-03T05:17:08;97144.72;;;18.24;67.50
9281;BME280;4679;47.966;7.958;2022-08-03T05:19:10;97150.81;;;18.30;67.36
9281;BME280;4679;47.966;7.958;2022-08-03T05:21:12;97148.53;;;18.37;67.42
9281;BME280;4679;47.966;7.958;2022-08-03T05:23:16;97154.66;;;18.42;67.43
9281;BME280;4679;47.966;7.958;2022-08-03T05:25:17;97146.59;;;18.42;67.45
9281;BME280;4679;47.966;7.958;2022-08-03T05:27:19;97149.41;;;18.51;67.48
9281;BME280;4679;47.966;7.958;2022-08-03T05:29:22;97149.84;;;18.58;67.00
9281;BME280;4679;47.966;7.958;2022-08-03T05:31:24;97155.34;;;18.67;67.09
9281;BME280;4679;47.966;7.958;2022-08-03T05:33:25;97150.69;;;18.72;66.81
9281;BME280;4679;47.966;7.958;2022-08-03T05:35:28;97159.84;;;18.71;67.10
9281;BME280;4679;47.966;7.958;2022-08-03T05:37:29;97150.91;;;18.76;66.72
9281;BME280;4679;47.966;7.958;2022-08-03T05:39:31;97154.81;;;18.83;66.94
9281;BME280;4679;47.966;7.958;2022-08-03T05:41:33;97144.56;;;18.85;66.88
9281;BME280;4679;47.966;7.958;2022-08-03T05:43:35;97150.94;;;18.89;66.50
9281;BME280;4679;47.966;7.958;2022-08-03T05:45:38;97155.44;;;18.94;66.66
9281;BME280;4679;47.966;7.958;2022-08-03T05:47:41;97147.47;;;19.03;66.32
9281;BME280;4679;47.966;7.958;2022-08-03T05:49:43;97152.16;;;19.11;66.13
9281;BME280;4679;47.966;7.958;2022-08-03T05:51:45;97151.56;;;19.14;66.27
9281;BME280;4679;47.966;7.958;2022-08-03T05:53:47;97140.41;;;19.20;66.46
9281;BME280;4679;47.966;7.958;2022-08-03T05:55:49;97145.59;;;19.30;66.04
9281;BME280;4679;47.966;7.958;2022-08-03T05:57:51;97150.78;;;19.41;65.94
9281;BME280;4679;47.966;7.958;2022-08-03T05:59:52;97148.22;;;19.49;65.75
9281;BME280;4679;47.966;7.958;2022-08-03T06:01:55;97148.00;;;19.59;65.65
9281;BME280;4679;47.966;7.958;2022-08-03T06:03:57;97153.22;;;19.70;65.27
9281;BME280;4679;47.966;7.958;2022-08-03T06:05:59;97150.88;;;19.77;65.16
9281;BME280;4679;47.966;7.958;2022-08-03T06:08:01;97148.75;;;19.87;65.20
9281;BME280;4679;47.966;7.958;2022-08-03T06:10:04;97149.97;;;19.95;65.11
9281;BME280;4679;47.966;7.958;2022-08-03T06:12:06;97147.81;;;20.06;64.92
9281;BME280;4679;47.966;7.958;2022-08-03T06:14:08;97147.91;;;20.14;64.68
9281;BME280;4679;47.966;7.958;2022-08-03T06:16:09;97147.78;;;20.19;64.53
9281;BME280;4679;47.966;7.958;2022-08-03T06:18:13;97144.38;;;20.27;64.40
9281;BME280;4679;47.966;7.958;2022-08-03T06:20:16;97149.25;;;20.39;63.92
9281;BME280;4679;47.966;7.958;2022-08-03T06:22:18;97148.50;;;20.47;64.19
9281;BME280;4679;47.966;7.958;2022-08-03T06:24:20;97148.59;;;20.56;63.53
9281;BME280;4679;47.966;7.958;2022-08-03T06:26:25;97153.72;;;20.66;63.80
9281;BME280;4679;47.966;7.958;2022-08-03T06:28:27;97150.28;;;20.74;63.77
9281;BME280;4679;47.966;7.958;2022-08-03T06:30:29;97149.84;;;20.81;63.38
9281;BME280;4679;47.966;7.958;2022-08-03T06:32:31;97142.63;;;20.90;63.36
9281;BME280;4679;47.966;7.958;2022-08-03T06:34:34;97140.44;;;21.00;63.21
9281;BME280;4679;47.966;7.958;2022-08-03T06:36:36;97142.06;;;21.10;62.93
9281;BME280;4679;47.966;7.958;2022-08-03T06:38:38;97142.63;;;21.21;62.86
9281;BME280;4679;47.966;7.958;2022-08-03T06:40:39;97138.25;;;21.33;62.54
9281;BME280;4679;47.966;7.958;2022-08-03T06:42:41;97136.03;;;21.44;62.50
9281;BME280;4679;47.966;7.958;2022-08-03T06:44:43;97133.69;;;21.51;62.30
9281;BME280;4679;47.966;7.958;2022-08-03T06:46:45;97139.59;;;21.62;62.01
9281;BME280;4679;47.966;7.958;2022-08-03T06:48:47;97145.78;;;21.71;61.32
9281;BME280;4679;47.966;7.958;2022-08-03T06:50:50;97142.50;;;21.83;61.29
9281;BME280;4679;47.966;7.958;2022-08-03T06:52:52;97146.00;;;21.92;61.54
9281;BME280;4679;47.966;7.958;2022-08-03T06:54:53;97153.34;;;22.00;61.23
9281;BME280;4679;47.966;7.958;2022-08-03T06:56:55;97150.66;;;22.17;60.58
9281;BME280;4679;47.966;7.958;2022-08-03T06:58:57;97149.56;;;22.27;60.52
9281;BME280;4679;47.966;7.958;2022-08-03T07:00:58;97149.06;;;22.33;60.35
9281;BME280;4679;47.966;7.958;2022-08-03T07:03:00;97149.72;;;22.39;60.31
9281;BME280;4679;47.966;7.958;2022-08-03T07:05:02;97148.09;;;22.46;60.14
9281;BME280;4679;47.966;7.958;2022-08-03T07:07:05;97155.91;;;22.57;60.14
9281;BME280;4679;47.966;7.958;2022-08-03T07:09:07;97154.78;;;22.66;59.75
9281;BME280;4679;47.966;7.958;2022-08-03T07:11:09;97146.81;;;22.78;59.60
9281;BME280;4679;47.966;7.958;2022-08-03T07:13:11;97167.50;;;22.92;59.13
9281;BME280;4679;47.966;7.958;2022-08-03T07:15:13;97152.84;;;23.01;58.76
9281;BME280;4679;47.966;7.958;2022-08-03T07:17:14;97151.38;;;23.12;58.56
9281;BME280;4679;47.966;7.958;2022-08-03T07:19:16;97151.94;;;23.27;58.24
9281;BME280;4679;47.966;7.958;2022-08-03T07:21:18;97152.53;;;23.41;58.02
9281;BME280;4679;47.966;7.958;2022-08-03T07:23:21;97157.56;;;23.60;57.58
9281;BME280;4679;47.966;7.958;2022-08-03T07:25:23;97149.38;;;23.68;57.24
9281;BME280;4679;47.966;7.958;2022-08-03T07:27:25;97146.47;;;23.82;57.11
9281;BME280;4679;47.966;7.958;2022-08-03T07:29:27;97148.25;;;23.99;56.91
9281;BME280;4679;47.966;7.958;2022-08-03T07:31:29;97146.75;;;24.10;56.57
9281;BME280;4679;47.966;7.958;2022-08-03T07:33:31;97150.03;;;24.24;56.37
9281;BME280;4679;47.966;7.958;2022-08-03T07:35:33;97141.81;;;24.33;56.25
9281;BME280;4679;47.966;7.958;2022-08-03T07:37:35;97146.38;;;24.41;56.18
9281;BME280;4679;47.966;7.958;2022-08-03T07:39:38;97151.72;;;24.49;55.92
9281;BME280;4679;47.966;7.958;2022-08-03T07:41:39;97147.81;;;24.59;55.75
9281;BME280;4679;47.966;7.958;2022-08-03T07:43:41;97153.63;;;24.70;55.35
9281;BME280;4679;47.966;7.958;2022-08-03T07:45:43;97151.59;;;24.79;54.99
9281;BME280;4679;47.966;7.958;2022-08-03T07:47:44;97150.41;;;24.88;54.91
9281;BME280;4679;47.966;7.958;2022-08-03T07:49:46;97151.59;;;25.00;54.99
9281;BME280;4679;47.966;7.958;2022-08-03T07:51:48;97154.19;;;25.08;54.31
9281;BME280;4679;47.966;7.958;2022-08-03T07:54:10;97148.44;;;25.22;54.17
9281;BME280;4679;47.966;7.958;2022-08-03T07:56:13;97151.19;;;25.34;53.89
9281;BME280;4679;47.966;7.958;2022-08-03T07:58:16;97141.78;;;25.44;53.34
9281;BME280;4679;47.966;7.958;2022-08-03T08:00:18;97142.03;;;25.51;52.96
9281;BME280;4679;47.966;7.958;2022-08-03T08:02:20;97143.75;;;25.68;53.10
9281;BME280;4679;47.966;7.958;2022-08-03T08:04:21;97142.38;;;25.86;52.39
9281;BME280;4679;47.966;7.958;2022-08-03T08:06:23;97140.06;;;26.00;52.50
9281;BME280;4679;47.966;7.958;2022-08-03T08:08:25;97142.09;;;26.15;52.04
9281;BME280;4679;47.966;7.958;2022-08-03T08:10:27;97146.72;;;26.27;52.00
9281;BME280;4679;47.966;7.958;2022-08-03T08:12:30;97135.81;;;26.39;51.41
9281;BME280;4679;47.966;7.958;2022-08-03T08:14:32;97137.00;;;26.54;51.10
9281;BME280;4679;47.966;7.958;2022-08-03T08:16:34;97138.09;;;26.65;51.42
9281;BME280;4679;47.966;7.958;2022-08-03T08:18:35;97138.38;;;26.76;51.00
9281;BME280;4679;47.966;7.958;2022-08-03T08:20:37;97142.44;;;26.82;50.70
9281;BME280;4679;47.966;7.958;2022-08-03T08:22:39;97139.47;;;26.87;50.04
9281;BME280;4679;47.966;7.958;2022-08-03T08:24:41;97148.84;;;27.02;49.86
9281;BME280;4679;47.966;7.958;2022-08-03T08:26:43;97151.66;;;27.21;49.52
9281;BME280;4679;47.966;7.958;2022-08-03T08:28:47;97143.06;;;27.35;49.63
9281;BME280;4679;47.966;7.958;2022-08-03T08:30:49;97148.69;;;27.42;49.38
9281;BME280;4679;47.966;7.958;2022-08-03T08:32:51;97139.44;;;27.46;49.01
9281;BME280;4679;47.966;7.958;2022-08-03T08:34:52;97143.03;;;27.66;48.42
9281;BME280;4679;47.966;7.958;2022-08-03T08:36:54;97145.84;;;27.85;48.37
9281;BME280;4679;47.966;7.958;2022-08-03T08:38:56;97147.03;;;28.04;48.46
9281;BME280;4679;47.966;7.958;2022-08-03T08:40:57;97136.63;;;28.09;48.02
9281;BME280;4679;47.966;7.958;2022-08-03T08:43:00;97130.28;;;28.21;47.99
9281;BME280;4679;47.966;7.958;2022-08-03T08:45:05;97138.34;;;28.33;47.42
9281;BME280;4679;47.966;7.958;2022-08-03T08:47:08;97124.84;;;28.40;47.11
9281;BME280;4679;47.966;7.958;2022-08-03T08:49:11;97132.88;;;28.52;46.81
9281;BME280;4679;47.966;7.958;2022-08-03T08:51:19;97124.81;;;28.59;46.71
9281;BME280;4679;47.966;7.958;2022-08-03T08:53:22;97133.78;;;28.60;46.77
9281;BME280;4679;47.966;7.958;2022-08-03T08:55:26;97124.97;;;28.66;46.32
9281;BME280;4679;47.966;7.958;2022-08-03T08:57:29;97132.75;;;28.84;46.15
9281;BME280;4679;47.966;7.958;2022-08-03T08:59:32;97131.41;;;28.78;45.90
9281;BME280;4679;47.966;7.958;2022-08-03T09:01:36;97126.97;;;28.89;45.50
9281;BME280;4679;47.966;7.958;2022-08-03T09:03:38;97123.22;;;28.97;45.56
9281;BME280;4679;47.966;7.958;2022-08-03T09:05:41;97123.31;;;29.04;45.26
9281;BME280;4679;47.966;7.958;2022-08-03T09:07:44;97122.06;;;29.21;44.70
9281;BME280;4679;47.966;7.958;2022-08-03T09:09:46;97133.75;;;29.41;44.54
9281;BME280;4679;47.966;7.958;2022-08-03T09:11:48;97129.56;;;29.47;44.29
9281;BME280;4679;47.966;7.958;2022-08-03T09:13:50;97124.19;;;29.54;44.18
9281;BME280;4679;47.966;7.958;2022-08-03T09:16:13;97124.69;;;29.59;43.73
9281;BME280;4679;47.966;7.958;2022-08-03T09:18:27;97124.84;;;29.70;43.61
9281;BME280;4679;47.966;7.958;2022-08-03T09:20:31;97122.31;;;29.84;43.06
9281;BME280;4679;47.966;7.958;2022-08-03T09:22:33;97131.91;;;29.97;43.15
9281;BME280;4679;47.966;7.958;2022-08-03T09:24:35;97128.25;;;29.90;42.73
9281;BME280;4679;47.966;7.958;2022-08-03T09:26:37;97124.00;;;29.92;42.93
9281;BME280;4679;47.966;7.958;2022-08-03T09:28:39;97124.47;;;29.98;42.60
9281;BME280;4679;47.966;7.958;2022-08-03T09:30:42;97116.31;;;30.01;42.78
9281;BME280;4679;47.966;7.958;2022-08-03T09:32:46;97118.28;;;30.31;42.31
9281;BME280;4679;47.966;7.958;2022-08-03T09:34:50;97124.03;;;30.52;41.88
9281;BME280;4679;47.966;7.958;2022-08-03T09:36:52;97121.53;;;30.40;41.98
9281;BME280;4679;47.966;7.958;2022-08-03T09:39:00;97121.72;;;30.54;41.54
9281;BME280;4679;47.966;7.958;2022-08-03T09:41:16;97113.91;;;30.56;41.38
9281;BME280;4679;47.966;7.958;2022-08-03T09:43:18;97122.22;;;30.63;41.33
9281;BME280;4679;47.966;7.958;2022-08-03T09:45:25;97111.69;;;30.65;41.51
9281;BME280;4679;47.966;7.958;2022-08-03T09:47:28;97120.22;;;30.60;41.51
9281;BME280;4679;47.966;7.958;2022-08-03T09:49:30;97107.41;;;30.71;40.79
9281;BME280;4679;47.966;7.958;2022-08-03T09:51:34;97117.81;;;30.92;40.13
9281;BME280;4679;47.966;7.958;2022-08-03T09:53:41;97115.81;;;30.86;40.82
9281;BME280;4679;47.966;7.958;2022-08-03T09:55:50;97114.25;;;30.88;40.60
9281;BME280;4679;47.966;7.958;2022-08-03T09:58:03;97113.53;;;30.95;40.33
9281;BME280;4679;47.966;7.958;2022-08-03T10:00:08;97117.75;;;31.22;39.67
9281;BME280;4679;47.966;7.958;2022-08-03T10:02:20;97113.94;;;31.37;39.71
9281;BME280;4679;47.966;7.958;2022-08-03T10:04:23;97116.06;;;31.55;39.80
9281;BME280;4679;47.966;7.958;2022-08-03T10:06:25;97110.63;;;31.62;39.33
9281;BME280;4679;47.966;7.958;2022-08-03T10:08:28;97117.09;;;31.39;39.77
9281;BME280;4679;47.966;7.958;2022-08-03T10:10:41;97107.75;;;31.44;39.03
9281;BME280;4679;47.966;7.958;2022-08-03T10:12:43;97112.97;;;31.63;39.37
9281;BME280;4679;47.966;7.958;2022-08-03T10:14:45;97109.19;;;31.75;39.13
9281;BME280;4679;47.966;7.958;2022-08-03T10:16:48;97115.91;;;31.85;38.30
9281;BME280;4679;47.966;7.958;2022-08-03T10:18:50;97112.03;;;31.96;38.25
9281;BME280;4679;47.966;7.958;2022-08-03T10:20:54;97101.50;;;32.09;37.89
9281;BME280;4679;47.966;7.958;2022-08-03T10:23:00;97107.34;;;32.00;37.87
9281;BME280;4679;47.966;7.958;2022-08-03T10:25:06;97106.84;;;31.77;38.33
9281;BME280;4679;47.966;7.958;2022-08-03T10:27:10;97106.38;;;31.68;38.16
9281;BME280;4679;47.966;7.958;2022-08-03T10:29:20;97106.78;;;31.70;38.61
9281;BME280;4679;47.966;7.958;2022-08-03T10:31:24;97100.31;;;32.03;38.22
9281;BME280;4679;47.966;7.958;2022-08-03T10:33:27;97105.00;;;31.99;38.02
9281;BME280;4679;47.966;7.958;2022-08-03T10:35:32;97090.84;;;31.90;38.26
9281;BME280;4679;47.966;7.958;2022-08-03T10:37:40;97101.06;;;31.93;38.13
9281;BME280;4679;47.966;7.958;2022-08-03T10:39:43;97089.44;;;32.24;37.77
9281;BME280;4679;47.966;7.958;2022-08-03T10:41:56;97094.59;;;32.40;37.49
9281;BME280;4679;47.966;7.958;2022-08-03T10:44:02;97093.03;;;32.39;37.35
9281;BME280;4679;47.966;7.958;2022-08-03T10:46:05;97089.53;;;32.42;36.57
9281;BME280;4679;47.966;7.958;2022-08-03T10:48:08;97088.78;;;32.48;36.71
9281;BME280;4679;47.966;7.958;2022-08-03T10:50:11;97086.81;;;32.56;37.00
9281;BME280;4679;47.966;7.958;2022-08-03T10:52:13;97079.34;;;32.57;36.33
9281;BME280;4679;47.966;7.958;2022-08-03T10:54:37;97083.31;;;32.66;36.68
9281;BME280;4679;47.966;7.958;2022-08-03T10:57:01;97083.78;;;33.00;36.03
9281;BME280;4679;47.966;7.958;2022-08-03T10:59:57;97075.81;;;32.56;35.99
9281;BME280;4679;47.966;7.958;2022-08-03T11:02:05;97084.97;;;32.81;36.25
9281;BME280;4679;47.966;7.958;2022-08-03T11:04:16;97082.22;;;32.96;36.11
9281;BME280;4679;47.966;7.958;2022-08-03T11:06:20;97077.91;;;32.91;35.83
9281;BME280;4679;47.966;7.958;2022-08-03T11:08:29;97079.88;;;33.12;35.13
9281;BME280;4679;47.966;7.958;2022-08-03T11:10:31;97073.19;;;33.09;35.35
9281;BME280;4679;47.966;7.958;2022-08-03T11:12:35;97075.16;;;33.05;35.48
9281;BME280;4679;47.966;7.958;2022-08-03T11:14:46;97082.59;;;32.91;35.80
9281;BME280;4679;47.966;7.958;2022-08-03T11:16:49;97071.22;;;32.96;35.77
9281;BME280;4679;47.966;7.958;2022-08-03T11:18:56;97068.09;;;32.97;34.89
9281;BME280;4679;47.966;7.958;2022-08-03T11:20:59;97072.81;;;32.97;35.20
9281;BME280;4679;47.966;7.958;2022-08-03T11:23:01;97074.00;;;32.99;35.37
9281;BME280;4679;47.966;7.958;2022-08-03T11:25:03;97065.31;;;33.01;35.37
9281;BME280;4679;47.966;7.958;2022-08-03T11:27:18;97068.50;;;32.99;34.67
9281;BME280;4679;47.966;7.958;2022-08-03T11:29:29;97063.38;;;33.12;35.08
9281;BME280;4679;47.966;7.958;2022-08-03T11:31:44;97059.09;;;33.43;34.17
9281;BME280;4679;47.966;7.958;2022-08-03T11:34:02;97069.31;;;33.28;34.43
9281;BME280;4679;47.966;7.958;2022-08-03T11:36:05;97069.69;;;33.34;34.48
9281;BME280;4679;47.966;7.958;2022-08-03T11:38:11;97058.28;;;33.57;34.35
9281;BME280;4679;47.966;7.958;2022-08-03T11:40:37;97064.53;;;33.68;33.89
9281;BME280;4679;47.966;7.958;2022-08-03T11:42:41;97061.00;;;33.67;34.04
9281;BME280;4679;47.966;7.958;2022-08-03T11:44:49;97067.31;;;33.53;34.07
9281;BME280;4679;47.966;7.958;2022-08-03T11:46:51;97066.91;;;33.62;34.23
9281;BME280;4679;47.966;7.958;2022-08-03T11:48:54;97065.72;;;33.77;33.63
9281;BME280;4679;47.966;7.958;2022-08-03T11:51:04;97061.44;;;33.44;34.43
9281;BME280;4679;47.966;7.958;2022-08-03T11:53:06;97060.63;;;33.19;34.34
9281;BME280;4679;47.966;7.958;2022-08-03T11:55:15;97063.38;;;33.23;33.87
9281;BME280;4679;47.966;7.958;2022-08-03T11:57:27;97059.06;;;33.53;33.48
9281;BME280;4679;47.966;7.958;2022-08-03T11:59:31;97065.31;;;33.65;33.54
9281;BME280;4679;47.966;7.958;2022-08-03T12:01:34;97057.88;;;33.54;33.63
9281;BME280;4679;47.966;7.958;2022-08-03T12:03:36;97058.66;;;33.59;33.83
9281;BME280;4679;47.966;7.958;2022-08-03T12:05:43;97061.38;;;33.66;33.25
9281;BME280;4679;47.966;7.958;2022-08-03T12:07:46;97053.50;;;33.89;33.43
9281;BME280;4679;47.966;7.958;2022-08-03T12:10:06;97060.19;;;33.92;32.85
9281;BME280;4679;47.966;7.958;2022-08-03T12:12:08;97058.16;;;34.10;32.61
9281;BME280;4679;47.966;7.958;2022-08-03T12:14:15;97052.53;;;34.42;32.52
9281;BME280;4679;47.966;7.958;2022-08-03T12:16:18;97043.44;;;34.48;32.32
9281;BME280;4679;47.966;7.958;2022-08-03T12:18:23;97047.06;;;34.35;32.25
9281;BME280;4679;47.966;7.958;2022-08-03T12:20:28;97060.06;;;34.23;32.24
9281;BME280;4679;47.966;7.958;2022-08-03T12:22:31;97051.88;;;34.02;32.62
9281;BME280;4679;47.966;7.958;2022-08-03T12:24:39;97038.13;;;33.95;32.79
9281;BME280;4679;47.966;7.958;2022-08-03T12:26:43;97049.06;;;34.20;32.29
9281;BME280;4679;47.966;7.958;2022-08-03T12:28:46;97041.94;;;34.33;32.16
9281;BME280;4679;47.966;7.958;2022-08-03T12:30:50;97039.91;;;34.48;32.06
9281;BME280;4679;47.966;7.958;2022-08-03T12:32:52;97042.97;;;34.57;31.67
9281;BME280;4679;47.966;7.958;2022-08-03T12:34:57;97030.00;;;34.57;32.22
9281;BME280;4679;47.966;7.958;2022-08-03T12:37:04;97028.25;;;34.85;31.65
9281;BME280;4679;47.966;7.958;2022-08-03T12:39:07;97033.31;;;34.97;31.37
9281;BME280;4679;47.966;7.958;2022-08-03T12:41:11;97038.28;;;34.54;31.61
9281;BME280;4679;47.966;7.958;2022-08-03T12:43:15;97023.78;;;34.43;31.83
9281;BME280;4679;47.966;7.958;2022-08-03T12:45:17;97018.22;;;34.50;31.67
9281;BME280;4679;47.966;7.958;2022-08-03T12:47:20;97024.00;;;34.77;31.34
9281;BME280;4679;47.966;7.958;2022-08-03T12:49:22;97017.19;;;34.88;31.01
9281;BME280;4679;47.966;7.958;2022-08-03T12:51:25;97024.41;;;35.27;30.99
9281;BME280;4679;47.966;7.958;2022-08-03T12:53:28;97018.59;;;35.55;30.48
9281;BME280;4679;47.966;7.958;2022-08-03T12:55:31;97024.22;;;35.45;30.47
9281;BME280;4679;47.966;7.958;2022-08-03T12:57:39;97023.56;;;35.30;30.52
9281;BME280;4679;47.966;7.958;2022-08-03T12:59:42;97015.72;;;35.29;30.72
9281;BME280;4679;47.966;7.958;2022-08-03T13:01:47;97024.34;;;35.34;30.42
9281;BME280;4679;47.966;7.958;2022-08-03T13:03:50;97019.94;;;35.81;30.31
9281;BME280;4679;47.966;7.958;2022-08-03T13:05:53;97019.06;;;35.47;30.23
9281;BME280;4679;47.966;7.958;2022-08-03T13:07:58;97020.47;;;35.21;30.75
9281;BME280;4679;47.966;7.958;2022-08-03T13:10:00;97018.69;;;35.45;30.62
9281;BME280;4679;47.966;7.958;2022-08-03T13:12:06;97021.00;;;35.53;30.56
9281;BME280;4679;47.966;7.958;2022-08-03T13:14:08;97012.06;;;35.80;29.88
9281;BME280;4679;47.966;7.958;2022-08-03T13:16:10;97015.75;;;35.63;30.12
9281;BME280;4679;47.966;7.958;2022-08-03T13:18:12;97020.25;;;35.49;30.03
9281;BME280;4679;47.966;7.958;2022-08-03T13:20:14;97020.81;;;35.30;30.21
9281;BME280;4679;47.966;7.958;2022-08-03T13:22:17;97021.81;;;35.50;30.11
9281;BME280;4679;47.966;7.958;2022-08-03T13:24:20;97006.28;;;36.01;29.70
9281;BME280;4679;47.966;7.958;2022-08-03T13:26:22;97014.19;;;35.99;29.22
9281;BME280;4679;47.966;7.958;2022-08-03T13:28:24;97006.72;;;35.96;29.53
9281;BME280;4679;47.966;7.958;2022-08-03T13:30:26;97013.69;;;35.74;29.58
9281;BME280;4679;47.966;7.958;2022-08-03T13:32:28;97007.72;;;35.79;29.86
9281;BME280;4679;47.966;7.958;2022-08-03T13:34:30;97010.28;;;35.97;29.33
9281;BME280;4679;47.966;7.958;2022-08-03T13:36:31;97013.50;;;36.22;29.19
9281;BME280;4679;47.966;7.958;2022-08-03T13:38:33;97010.28;;;36.31;29.14
9281;BME280;4679;47.966;7.958;2022-08-03T13:40:37;97001.41;;;36.12;29.06
9281;BME280;4679;47.966;7.958;2022-08-03T13:42:38;96998.31;;;36.07;29.48
9281;BME280;4679;47.966;7.958;2022-08-03T13:44:40;96996.25;;;36.14;28.86
9281;BME280;4679;47.966;7.958;2022-08-03T13:46:42;96998.81;;;36.32;28.70
9281;BME280;4679;47.966;7.958;2022-08-03T13:48:44;96987.59;;;36.43;29.22
9281;BME280;4679;47.966;7.958;2022-08-03T13:50:46;97000.88;;;36.24;28.66
9281;BME280;4679;47.966;7.958;2022-08-03T13:52:48;96995.03;;;36.15;29.00
9281;BME280;4679;47.966;7.958;2022-08-03T13:54:49;96986.81;;;35.78;29.28
9281;BME280;4679;47.966;7.958;2022-08-03T13:56:53;96995.34;;;35.56;29.79
9281;BME280;4679;47.966;7.958;2022-08-03T13:58:55;96997.69;;;35.92;29.42
9281;BME280;4679;47.966;7.958;2022-08-03T14:00:57;96993.88;;;36.13;28.77
9281;BME280;4679;47.966;7.958;2022-08-03T14:03:00;96993.34;;;36.25;28.94
9281;BME280;4679;47.966;7.958;2022-08-03T14:05:02;96999.81;;;36.11;29.28
9281;BME280;4679;47.966;7.958;2022-08-03T14:07:04;96994.25;;;35.84;29.02
9281;BME280;4679;47.966;7.958;2022-08-03T14:09:06;96984.50;;;35.73;29.09
9281;BME280;4679;47.966;7.958;2022-08-03T14:11:08;96989.13;;;35.83;29.03
9281;BME280;4679;47.966;7.958;2022-08-03T14:13:12;96985.00;;;35.60;28.99
9281;BME280;4679;47.966;7.958;2022-08-03T14:15:14;96982.13;;;35.75;28.96
9281;BME280;4679;47.966;7.958;2022-08-03T14:17:16;96978.16;;;35.76;28.96
9281;BME280;4679;47.966;7.958;2022-08-03T14:19:18;96984.94;;;35.68;29.09
9281;BME280;4679;47.966;7.958;2022-08-03T14:21:19;96973.06;;;35.71;28.59
9281;BME280;4679;47.966;7.958;2022-08-03T14:23:21;96976.69;;;35.64;29.37
9281;BME280;4679;47.966;7.958;2022-08-03T14:25:23;96979.72;;;35.77;28.66
9281;BME280;4679;47.966;7.958;2022-08-03T14:27:25;96976.06;;;35.49;29.25
9281;BME280;4679;47.966;7.958;2022-08-03T14:29:28;96973.53;;;35.28;29.10
9281;BME280;4679;47.966;7.958;2022-08-03T14:31:30;96978.28;;;35.24;29.16
9281;BME280;4679;47.966;7.958;2022-08-03T14:33:32;96974.63;;;35.38;29.35
9281;BME280;4679;47.966;7.958;2022-08-03T14:35:33;96975.78;;;35.40;28.51
9281;BME280;4679;47.966;7.958;2022-08-03T14:37:35;96972.84;;;35.58;28.96
9281;BME280;4679;47.966;7.958;2022-08-03T14:39:37;96968.97;;;35.86;28.62
9281;BME280;4679;47.966;7.958;2022-08-03T14:41:38;96962.06;;;36.01;28.34
9281;BME280;4679;47.966;7.958;2022-08-03T14:43:40;96962.63;;;35.89;28.40
9281;BME280;4679;47.966;7.958;2022-08-03T14:45:43;96957.09;;;36.19;27.53
9281;BME280;4679;47.966;7.958;2022-08-03T14:47:45;96961.81;;;36.49;27.19
9281;BME280;4679;47.966;7.958;2022-08-03T14:49:47;96962.25;;;36.48;27.71
9281;BME280;4679;47.966;7.958;2022-08-03T14:51:48;96960.66;;;36.20;27.37
9281;BME280;4679;47.966;7.958;2022-08-03T14:53:50;96952.81;;;35.84;27.24
9281;BME280;4679;47.966;7.958;2022-08-03T14:55:52;96961.19;;;35.77;27.31
9281;BME280;4679;47.966;7.958;2022-08-03T14:57:54;96954.47;;;35.78;27.17
9281;BME280;4679;47.966;7.958;2022-08-03T14:59:55;96947.25;;;35.88;26.27
9281;BME280;4679;47.966;7.958;2022-08-03T15:01:58;96950.47;;;35.83;27.02
9281;BME280;4679;47.966;7.958;2022-08-03T15:04:00;96953.69;;;36.08;26.00
9281;BME280;4679;47.966;7.958;2022-08-03T15:06:02;96948.47;;;36.14;25.73
9281;BME280;4679;47.966;7.958;2022-08-03T15:08:04;96950.00;;;36.18;25.64
9281;BME280;4679;47.966;7.958;2022-08-03T15:10:07;96950.50;;;36.40;25.24
9281;BME280;4679;47.966;7.958;2022-08-03T15:12:08;96940.72;;;36.59;25.18
9281;BME280;4679;47.966;7.958;2022-08-03T15:14:10;96939.69;;;36.76;24.83
9281;BME280;4679;47.966;7.958;2022-08-03T15:16:12;96938.44;;;36.54;25.31
9281;BME280;4679;47.966;7.958;2022-08-03T15:18:15;96929.78;;;36.25;25.12
9281;BME280;4679;47.966;7.958;2022-08-03T15:20:17;96929.66;;;36.05;24.83
9281;BME280;4679;47.966;7.958;2022-08-03T15:22:18;96929.78;;;35.94;25.07
9281;BME280;4679;47.966;7.958;2022-08-03T15:24:21;96936.41;;;35.70;25.05
9281;BME280;4679;47.966;7.958;2022-08-03T15:26:23;96935.59;;;35.70;25.24
9281;BME280;4679;47.966;7.958;2022-08-03T15:28:24;96927.25;;;35.77;24.47
9281;BME280;4679;47.966;7.958;2022-08-03T15:30:26;96919.88;;;36.27;24.49
9281;BME280;4679;47.966;7.958;2022-08-03T15:32:28;96916.00;;;36.75;23.50
9281;BME280;4679;47.966;7.958;2022-08-03T15:34:31;96912.03;;;36.76;23.63
9281;BME280;4679;47.966;7.958;2022-08-03T15:36:33;96913.66;;;36.47;23.50
9281;BME280;4679;47.966;7.958;2022-08-03T15:38:34;96914.91;;;36.15;23.74
9281;BME280;4679;47.966;7.958;2022-08-03T15:40:36;96898.97;;;35.96;23.97
9281;BME280;4679;47.966;7.958;2022-08-03T15:42:38;96902.50;;;36.00;23.68
9281;BME280;4679;47.966;7.958;2022-08-03T15:44:40;96897.91;;;36.17;23.17
9281;BME280;4679;47.966;7.958;2022-08-03T15:46:41;96895.19;;;36.40;22.98
9281;BME280;4679;47.966;7.958;2022-08-03T15:48:43;96902.44;;;36.57;22.88
9281;BME280;4679;47.966;7.958;2022-08-03T15:50:47;96901.63;;;36.34;23.05
9281;BME280;4679;47.966;7.958;2022-08-03T15:52:48;96896.97;;;36.27;22.93
9281;BME280;4679;47.966;7.958;2022-08-03T15:54:50;96895.38;;;36.53;22.77
9281;BME280;4679;47.966;7.958;2022-08-03T15:56:52;96896.53;;;36.55;22.63
9281;BME280;4679;47.966;7.958;2022-08-03T15:58:54;96896.28;;;36.70;22.45
9281;BME280;4679;47.966;7.958;2022-08-03T16:00:56;96900.22;;;36.49;22.58
9281;BME280;4679;47.966;7.958;2022-08-03T16:02:58;96888.41;;;36.18;22.91
9281;BME280;4679;47.966;7.958;2022-08-03T16:05:00;96887.16;;;35.95;23.18
9281;BME280;4679;47.966;7.958;2022-08-03T16:07:03;96890.25;;;36.01;22.98
9281;BME280;4679;47.966;7.958;2022-08-03T16:09:06;96886.63;;;36.35;22.21
9281;BME280;4679;47.966;7.958;2022-08-03T16:11:08;96888.78;;;36.20;22.82
9281;BME280;4679;47.966;7.958;2022-08-03T16:13:09;96885.56;;;36.25;22.67
9281;BME280;4679;47.966;7.958;2022-08-03T16:15:13;96881.69;;;36.46;22.48
9281;BME280;4679;47.966;7.958;2022-08-03T16:17:15;96883.44;;;36.36;22.17
9281;BME280;4679;47.966;7.958;2022-08-03T16:19:17;96882.94;;;36.14;22.06
9281;BME280;4679;47.966;7.958;2022-08-03T16:21:18;96887.84;;;36.03;21.89
9281;BME280;4679;47.966;7.958;2022-08-03T16:23:22;96885.84;;;35.73;22.31
9281;BME280;4679;47.966;7.958;2022-08-03T16:25:24;96885.88;;;35.39;22.58